Tallaght, Ireland
Current Conditions -  °F | °C
As of 9:00 AM on Saturday 29 Nov 2014 (Local Time) from EIME Reporting Station
Moderate Fog Moderate Fog  
Wind Chill: 43°   Ceiling: 100
Heat Index: 43°   Visibility: 0.12mi
Dew Point: 43°   Wind: 3mph
Humidity: 100%   Direction: 270°W
Pressure: 29.8"   Gusts: NA
Location:  53.29°N, 6.37°W
Report Text: EIME 290900Z 27003KT 0200 FG VV001 06/06 Q1009
Loading
Personal Weather Stations






























Interactive Weather Map New forecast layout! Learn more

10-Day Weather Forecast

Advertisements
Track Severe Weather on mobile